Time;durP1;ratioP1;P1;durP2;ratioP2;P2;SDS_P1;SDS_P2;PMS_P1;PMS_P2;Temp;Humidity;BMP_temperature;BMP_pressure;BME280_temperature;BME280_humidity;BME280_pressure;Samples;Min_cycle;Max_cycle;Signal;HPM_P1;HPM_P2
2024/01/09 00:00:17;;;;;;;5.65;3.75;;;-2.90;99.90;;;;;;6188304;23;20154;-77
2024/01/09 00:02:43;;;;;;;3.72;2.67;;;-2.90;99.90;;;;;;6188330;23;20024;-77
2024/01/09 00:05:09;;;;;;;2.72;1.83;;;-2.90;99.90;;;;;;6188203;23;20019;-77
2024/01/09 00:07:34;;;;;;;7.53;3.25;;;-2.90;99.90;;;;;;6187903;23;20441;-77
2024/01/09 00:10:00;;;;;;;3.20;1.75;;;-3.00;99.90;;;;;;6188293;23;20022;-77
2024/01/09 00:12:26;;;;;;;2.15;1.70;;;-3.00;99.90;;;;;;6187909;23;20083;-77
2024/01/09 00:14:51;;;;;;;4.38;2.85;;;-3.00;99.90;;;;;;6187944;23;20047;-76
2024/01/09 00:17:17;;;;;;;6.68;2.60;;;-3.00;99.90;;;;;;6213521;23;20079;-77
2024/01/09 00:19:42;;;;;;;4.72;3.13;;;-3.00;99.90;;;;;;6188350;23;20039;-77
2024/01/09 00:22:08;;;;;;;4.07;2.97;;;-3.10;99.90;;;;;;6188222;23;20017;-77
2024/01/09 00:24:34;;;;;;;4.68;2.30;;;-3.10;99.90;;;;;;6213310;23;20127;-77
2024/01/09 00:26:59;;;;;;;2.92;2.63;;;-3.00;99.90;;;;;;6187694;23;20070;-77
2024/01/09 00:29:25;;;;;;;7.68;4.05;;;-3.10;99.90;;;;;;6213525;23;20008;-77
2024/01/09 00:31:51;;;;;;;4.82;2.72;;;-3.10;99.90;;;;;;6188147;23;20441;-77
2024/01/09 00:34:16;;;;;;;5.40;3.15;;;-3.10;99.90;;;;;;6187658;23;20074;-76
2024/01/09 00:36:43;;;;;;;13.63;3.08;;;-3.10;99.90;;;;;;6213166;23;20008;-77
2024/01/09 00:39:09;;;;;;;6.50;3.50;;;-3.20;99.90;;;;;;6188175;23;20078;-77
2024/01/09 00:41:35;;;;;;;11.05;3.13;;;-3.20;99.90;;;;;;6187925;23;20024;-77
2024/01/09 00:44:00;;;;;;;4.90;2.80;;;-3.20;99.90;;;;;;6212803;23;20012;-77
2024/01/09 00:46:28;;;;;;;5.75;3.58;;;-3.30;99.90;;;;;;6213162;23;20322;-77
2024/01/09 00:48:53;;;;;;;5.53;2.50;;;-3.30;99.90;;;;;;6212996;23;20084;-77
2024/01/09 00:51:19;;;;;;;4.35;3.38;;;-3.40;99.90;;;;;;6188238;23;20044;-77
2024/01/09 00:53:44;;;;;;;7.22;4.32;;;-3.40;99.90;;;;;;6187526;23;20012;-77
2024/01/09 00:56:10;;;;;;;2.78;1.98;;;-3.40;99.90;;;;;;6187325;23;20008;-77
2024/01/09 00:58:36;;;;;;;4.60;2.40;;;-3.40;99.90;;;;;;6212821;23;20286;-77
2024/01/09 01:01:01;;;;;;;3.30;2.40;;;-3.40;99.90;;;;;;6188318;23;20012;-77
2024/01/09 01:03:27;;;;;;;3.50;1.40;;;-3.40;99.90;;;;;;6187477;23;20016;-77
2024/01/09 01:05:53;;;;;;;4.43;3.17;;;-3.40;99.90;;;;;;6188163;23;20016;-77
2024/01/09 01:08:20;;;;;;;2.90;1.90;;;-3.50;99.90;;;;;;6187633;23;20013;-76
2024/01/09 01:10:45;;;;;;;2.13;1.75;;;-3.50;99.90;;;;;;6187339;23;20012;-77
2024/01/09 01:13:11;;;;;;;6.75;3.28;;;-3.50;99.90;;;;;;6187517;23;20492;-77
2024/01/09 01:15:36;;;;;;;4.25;2.33;;;-3.50;99.90;;;;;;6213018;23;20080;-77
2024/01/09 01:18:02;;;;;;;6.13;3.30;;;-3.50;99.90;;;;;;6187374;23;20013;-77
2024/01/09 01:20:28;;;;;;;3.47;1.83;;;-3.50;99.90;;;;;;6212574;23;20035;-77
2024/01/09 01:22:53;;;;;;;2.35;1.63;;;-3.60;99.90;;;;;;6187370;23;20008;-76
2024/01/09 01:25:19;;;;;;;5.10;2.75;;;-3.60;99.90;;;;;;6186987;23;20074;-77
2024/01/09 01:27:45;;;;;;;6.47;2.53;;;-3.60;99.90;;;;;;6212244;23;20032;-77
2024/01/09 01:30:10;;;;;;;5.82;3.65;;;-3.60;99.90;;;;;;6212592;23;20069;-76
2024/01/09 01:32:36;;;;;;;5.35;2.78;;;-3.60;99.90;;;;;;6212489;23;20009;-76
2024/01/09 01:35:02;;;;;;;9.07;2.63;;;-3.60;99.90;;;;;;6187271;23;20090;-77
2024/01/09 01:37:28;;;;;;;3.17;1.30;;;-3.60;99.90;;;;;;6187193;23;20016;-77
2024/01/09 01:39:54;;;;;;;2.25;1.65;;;-3.60;99.90;;;;;;6187532;23;20019;-76
2024/01/09 01:42:19;;;;;;;4.53;2.47;;;-3.70;99.90;;;;;;6187089;23;20095;-76
2024/01/09 01:44:45;;;;;;;3.95;1.95;;;-3.70;99.90;;;;;;6187126;23;20115;-76
2024/01/09 01:47:11;;;;;;;4.35;2.00;;;-3.70;99.90;;;;;;6187094;23;20013;-77
2024/01/09 01:49:37;;;;;;;4.90;2.75;;;-3.70;99.90;;;;;;6187059;23;20005;-77
2024/01/09 01:52:03;;;;;;;2.83;1.52;;;-3.80;99.90;;;;;;6212405;23;20356;-76
2024/01/09 01:54:32;;;;;;;4.60;1.95;;;-3.80;99.90;;;;;;6212109;23;20032;-76
2024/01/09 01:56:58;;;;;;;4.82;2.35;;;-3.80;99.90;;;;;;6187118;23;20008;-76
2024/01/09 01:59:24;;;;;;;2.65;2.00;;;-3.80;99.90;;;;;;6187246;23;20017;-76
2024/01/09 02:01:51;;;;;;;4.68;2.53;;;-3.90;99.90;;;;;;6187055;23;20017;-76
2024/01/09 02:04:19;;;;;;;5.32;2.45;;;-3.80;99.90;;;;;;6212343;23;20013;-76
2024/01/09 02:06:45;;;;;;;2.65;1.85;;;-3.80;99.90;;;;;;6212465;23;20009;-76
2024/01/09 02:09:11;;;;;;;3.35;1.95;;;-3.80;99.90;;;;;;6187570;23;20012;-77
2024/01/09 02:11:38;;;;;;;5.25;2.83;;;-3.80;99.90;;;;;;6187266;23;20084;-76
2024/01/09 02:14:03;;;;;;;3.60;2.38;;;-3.90;99.90;;;;;;6186975;23;20023;-76
2024/01/09 02:16:29;;;;;;;3.60;1.98;;;-3.90;99.90;;;;;;6186578;23;20009;-76
2024/01/09 02:18:54;;;;;;;4.38;1.73;;;-3.90;99.90;;;;;;6212365;23;20009;-76
2024/01/09 02:21:20;;;;;;;6.53;3.30;;;-3.90;99.90;;;;;;6187367;23;20016;-76
2024/01/09 02:23:48;;;;;;;3.28;2.25;;;-3.90;99.90;;;;;;6187294;23;20004;-76
2024/01/09 02:26:19;;;;;;;2.78;1.95;;;-3.90;99.90;;;;;;6212534;23;20008;-76
2024/01/09 02:28:54;;;;;;;4.40;1.60;;;-3.90;99.90;;;;;;6186870;23;20063;-76
2024/01/09 02:31:20;;;;;;;4.13;2.20;;;-4.00;99.90;;;;;;6186951;23;20009;-76
2024/01/09 02:33:46;;;;;;;3.53;1.88;;;-3.90;99.90;;;;;;6186728;23;20013;-76
2024/01/09 02:36:12;;;;;;;5.55;3.03;;;-3.90;99.90;;;;;;6186932;23;20384;-76
2024/01/09 02:38:38;;;;;;;2.47;1.20;;;-4.00;99.90;;;;;;6187224;23;20100;-76
2024/01/09 02:41:05;;;;;;;2.15;1.88;;;-4.00;99.90;;;;;;6187323;23;20013;-76
2024/01/09 02:43:31;;;;;;;3.53;2.10;;;-4.00;99.90;;;;;;6186139;23;20012;-76
2024/01/09 02:45:56;;;;;;;1.45;1.20;;;-4.00;99.90;;;;;;6186991;23;20013;-76
2024/01/09 02:48:22;;;;;;;3.30;1.55;;;-4.00;99.90;;;;;;6186743;23;20445;-76
2024/01/09 02:50:47;;;;;;;2.78;1.42;;;-4.00;99.90;;;;;;6187021;23;20031;-76
2024/01/09 02:53:13;;;;;;;1.85;1.20;;;-4.00;99.90;;;;;;6186499;23;20015;-76
2024/01/09 02:55:39;;;;;;;3.97;2.03;;;-4.10;99.90;;;;;;6186958;23;20047;-76
2024/01/09 02:58:04;;;;;;;4.72;2.75;;;-4.10;99.90;;;;;;6186737;23;20016;-77
2024/01/09 03:00:30;;;;;;;3.22;1.58;;;-4.10;99.90;;;;;;6212307;23;20340;-76
2024/01/09 03:02:56;;;;;;;2.65;1.80;;;-4.10;99.90;;;;;;6186995;23;20013;-76
2024/01/09 03:05:22;;;;;;;4.05;2.85;;;-4.10;99.90;;;;;;6186899;23;20017;-76
2024/01/09 03:07:48;;;;;;;2.30;1.13;;;-4.20;99.90;;;;;;6186186;23;20008;-76
2024/01/09 03:10:14;;;;;;;3.33;2.33;;;-4.20;99.90;;;;;;6187953;23;20008;-76
2024/01/09 03:12:39;;;;;;;1.55;1.20;;;-4.20;99.90;;;;;;6188797;23;20464;-76
2024/01/09 03:15:05;;;;;;;4.28;1.77;;;-4.20;99.90;;;;;;6188794;23;20449;-76
2024/01/09 03:17:31;;;;;;;2.47;1.73;;;-4.20;99.90;;;;;;6188526;23;20016;-76
2024/01/09 03:19:57;;;;;;;4.72;1.88;;;-4.20;99.90;;;;;;6188715;23;20012;-76
2024/01/09 03:22:22;;;;;;;2.13;1.40;;;-4.20;99.90;;;;;;6188296;23;20019;-76
2024/01/09 03:24:48;;;;;;;3.47;1.77;;;-4.20;99.90;;;;;;6213311;23;20381;-76
2024/01/09 03:27:13;;;;;;;5.68;1.80;;;-4.20;99.90;;;;;;6213468;23;20067;-76
2024/01/09 03:29:39;;;;;;;2.83;1.77;;;-4.20;99.90;;;;;;6188674;23;20074;-76
2024/01/09 03:32:05;;;;;;;3.72;1.77;;;-4.20;99.90;;;;;;6214105;23;20004;-76
2024/01/09 03:34:31;;;;;;;3.45;2.15;;;-4.20;99.90;;;;;;6214830;23;20019;-76
2024/01/09 03:36:56;;;;;;;1.67;1.23;;;-4.20;99.90;;;;;;6213308;23;20088;-76
2024/01/09 03:39:22;;;;;;;3.55;1.77;;;-4.30;99.90;;;;;;6213740;23;20163;-76
2024/01/09 03:41:48;;;;;;;2.42;1.38;;;-4.30;99.90;;;;;;6188744;23;20020;-76
2024/01/09 03:44:14;;;;;;;3.78;2.08;;;-4.30;99.90;;;;;;6213378;23;20469;-76
2024/01/09 03:46:40;;;;;;;3.25;1.58;;;-4.30;99.90;;;;;;6188244;23;20027;-77
2024/01/09 03:49:05;;;;;;;1.40;1.10;;;-4.30;99.90;;;;;;6187709;23;20013;-76
2024/01/09 03:51:31;;;;;;;2.67;1.88;;;-4.30;99.90;;;;;;6188279;23;20008;-76
2024/01/09 03:53:57;;;;;;;2.67;2.05;;;-4.30;99.90;;;;;;6212965;23;20040;-76
2024/01/09 03:56:24;;;;;;;1.90;1.23;;;-4.30;99.90;;;;;;6188262;23;20035;-76
2024/01/09 03:58:50;;;;;;;1.52;1.10;;;-4.40;99.90;;;;;;6213532;23;20369;-76
2024/01/09 04:01:15;;;;;;;4.30;2.08;;;-4.40;99.90;;;;;;6188402;23;20488;-76
2024/01/09 04:03:41;;;;;;;3.78;2.30;;;-4.40;99.90;;;;;;6213448;23;20004;-76
2024/01/09 04:06:07;;;;;;;1.65;0.85;;;-4.40;99.90;;;;;;6213875;23;20005;-76
2024/01/09 04:08:32;;;;;;;2.88;1.42;;;-4.40;99.90;;;;;;6187405;23;20012;-76
2024/01/09 04:10:58;;;;;;;4.57;2.72;;;-4.40;99.90;;;;;;6213800;23;20063;-76
2024/01/09 04:13:23;;;;;;;1.77;1.10;;;-4.40;99.90;;;;;;6213433;23;20008;-76
2024/01/09 04:15:49;;;;;;;4.93;2.05;;;-4.40;99.90;;;;;;6213594;23;20013;-76
2024/01/09 04:18:15;;;;;;;1.27;0.90;;;-4.50;99.90;;;;;;6214543;23;20017;-76
2024/01/09 04:20:42;;;;;;;3.83;1.58;;;-4.40;99.90;;;;;;6187966;23;20040;-76
2024/01/09 04:23:07;;;;;;;3.83;1.65;;;-4.50;99.90;;;;;;6188147;23;20012;-76
2024/01/09 04:25:34;;;;;;;1.90;1.70;;;-4.50;99.90;;;;;;6188030;23;20160;-76
2024/01/09 04:28:00;;;;;;;3.83;1.95;;;-4.50;99.90;;;;;;6213250;23;20057;-76
2024/01/09 04:30:26;;;;;;;2.78;2.17;;;-4.50;99.90;;;;;;6213574;23;20012;-76
2024/01/09 04:32:52;;;;;;;1.65;1.00;;;-4.50;99.90;;;;;;6187959;23;20096;-76
2024/01/09 04:35:18;;;;;;;2.17;1.48;;;-4.50;99.90;;;;;;6187538;23;20020;-76
2024/01/09 04:37:44;;;;;;;2.83;2.10;;;-4.50;99.90;;;;;;6187768;23;20008;-76
2024/01/09 04:40:10;;;;;;;3.17;1.98;;;-4.60;99.90;;;;;;6188266;23;20099;-76
2024/01/09 04:42:35;;;;;;;1.30;0.88;;;-4.60;99.90;;;;;;6187927;23;20016;-76
2024/01/09 04:45:01;;;;;;;3.65;1.65;;;-4.60;99.90;;;;;;6188754;23;20019;-76
2024/01/09 04:47:27;;;;;;;2.20;1.15;;;-4.60;99.90;;;;;;6187436;23;20099;-76
2024/01/09 04:49:52;;;;;;;2.53;1.60;;;-4.60;99.90;;;;;;6187363;23;20193;-76
2024/01/09 04:52:18;;;;;;;2.60;1.42;;;-4.60;99.90;;;;;;6214824;23;20087;-76
2024/01/09 04:54:43;;;;;;;1.77;1.33;;;-4.60;99.90;;;;;;6187481;23;20457;-76
2024/01/09 04:57:09;;;;;;;2.85;1.52;;;-4.60;99.90;;;;;;6213081;23;20024;-76
2024/01/09 04:59:35;;;;;;;2.47;1.83;;;-4.60;99.90;;;;;;6212826;23;20393;-76
2024/01/09 05:02:02;;;;;;;2.45;1.65;;;-4.60;99.90;;;;;;6187589;23;20095;-76
2024/01/09 05:04:31;;;;;;;1.55;1.13;;;-4.60;99.90;;;;;;6212528;23;20059;-76
2024/01/09 05:06:56;;;;;;;1.48;1.05;;;-4.60;99.90;;;;;;6187490;23;20067;-76
2024/01/09 05:09:23;;;;;;;1.58;1.10;;;-4.60;99.90;;;;;;6212320;23;20008;-76
2024/01/09 05:11:49;;;;;;;4.57;1.65;;;-4.60;99.90;;;;;;6187602;23;20035;-76
2024/01/09 05:14:14;;;;;;;3.35;1.33;;;-4.60;99.90;;;;;;6187447;23;20009;-76
2024/01/09 05:16:40;;;;;;;2.35;1.92;;;-4.60;99.90;;;;;;6212985;23;20017;-76
2024/01/09 05:19:05;;;;;;;4.32;2.30;;;-4.60;99.90;;;;;;6212881;23;20013;-76
2024/01/09 05:21:31;;;;;;;1.48;1.05;;;-4.60;99.90;;;;;;6213060;23;20009;-76
2024/01/09 05:23:57;;;;;;;4.53;2.20;;;-4.60;99.90;;;;;;6186656;23;20350;-76
2024/01/09 05:26:22;;;;;;;3.45;2.13;;;-4.60;99.90;;;;;;6212662;23;20050;-76
2024/01/09 05:28:48;;;;;;;1.77;1.13;;;-4.70;99.90;;;;;;6212617;23;20040;-76
2024/01/09 05:31:14;;;;;;;3.50;2.28;;;-4.60;99.90;;;;;;6187306;23;20349;-76
2024/01/09 05:33:39;;;;;;;2.08;1.35;;;-4.60;99.90;;;;;;6212396;23;20012;-75
2024/01/09 05:36:06;;;;;;;3.53;1.40;;;-4.60;99.90;;;;;;6187331;23;20015;-76
2024/01/09 05:38:32;;;;;;;2.80;1.90;;;-4.70;99.90;;;;;;6187385;23;20013;-76
2024/01/09 05:40:58;;;;;;;3.17;1.88;;;-4.70;99.90;;;;;;6187285;23;20107;-76
2024/01/09 05:43:23;;;;;;;2.88;1.75;;;-4.70;99.90;;;;;;6187219;23;20009;-75
2024/01/09 05:45:49;;;;;;;2.38;1.55;;;-4.70;99.90;;;;;;6187444;23;20224;-76
2024/01/09 05:48:15;;;;;;;5.70;2.13;;;-4.80;99.90;;;;;;6212236;23;20016;-76
2024/01/09 05:50:40;;;;;;;2.05;1.58;;;-4.80;99.90;;;;;;6212599;23;20008;-76
2024/01/09 05:53:07;;;;;;;2.33;1.45;;;-4.80;99.90;;;;;;6186621;23;20353;-75
2024/01/09 05:55:33;;;;;;;3.03;1.58;;;-4.80;99.90;;;;;;6187247;23;20015;-75
2024/01/09 05:57:58;;;;;;;4.40;2.47;;;-4.80;99.90;;;;;;6212435;23;20013;-75
2024/01/09 06:00:24;;;;;;;3.03;1.70;;;-4.80;99.90;;;;;;6187286;23;20013;-75
2024/01/09 06:02:51;;;;;;;5.30;1.67;;;-4.90;99.90;;;;;;6212017;23;20078;-75
2024/01/09 06:05:16;;;;;;;1.60;1.15;;;-4.80;99.90;;;;;;6186623;23;20048;-75
2024/01/09 06:07:42;;;;;;;2.58;1.33;;;-4.90;99.90;;;;;;6184318;23;20062;-75
2024/01/09 06:10:08;;;;;;;3.38;1.98;;;-5.00;99.90;;;;;;6212509;23;20012;-75
2024/01/09 06:12:33;;;;;;;2.50;1.75;;;-5.00;99.90;;;;;;6186914;23;20013;-76
2024/01/09 06:14:59;;;;;;;2.08;1.52;;;-5.00;99.90;;;;;;6186646;23;20023;-75
2024/01/09 06:17:25;;;;;;;3.00;1.45;;;-5.00;99.90;;;;;;6186856;23;20017;-75
2024/01/09 06:19:50;;;;;;;3.47;2.42;;;-5.00;99.90;;;;;;6211747;23;20345;-75
2024/01/09 06:22:16;;;;;;;2.25;1.20;;;-5.10;99.90;;;;;;6187067;23;20019;-76
2024/01/09 06:24:42;;;;;;;3.03;1.90;;;-5.10;99.90;;;;;;6212227;23;20314;-75
2024/01/09 06:27:07;;;;;;;4.00;2.58;;;-5.10;99.90;;;;;;6212344;23;20092;-76
2024/01/09 06:29:33;;;;;;;3.45;1.77;;;-5.10;99.90;;;;;;6212268;23;20365;-75
2024/01/09 06:31:59;;;;;;;5.20;2.03;;;-5.10;99.90;;;;;;6212042;23;20151;-75
2024/01/09 06:34:24;;;;;;;3.88;2.22;;;-5.10;99.90;;;;;;6186235;23;20013;-76
2024/01/09 06:36:50;;;;;;;3.08;1.92;;;-5.10;99.90;;;;;;6187066;23;20013;-76
2024/01/09 06:39:16;;;;;;;3.45;1.50;;;-5.10;99.90;;;;;;6186663;23;20075;-75
2024/01/09 06:41:42;;;;;;;2.30;1.55;;;-5.10;99.90;;;;;;6187061;23;20393;-75
2024/01/09 06:44:08;;;;;;;1.83;1.50;;;-5.20;99.90;;;;;;6213268;23;20009;-76
2024/01/09 06:46:34;;;;;;;0.85;0.85;;;-5.20;99.90;;;;;;6188726;23;20441;-76
2024/01/09 06:48:59;;;;;;;1.00;0.85;;;-5.20;99.90;;;;;;6188010;23;20508;-76
2024/01/09 06:51:25;;;;;;;1.48;0.98;;;-5.20;99.90;;;;;;6188883;23;20083;-76
2024/01/09 06:53:51;;;;;;;3.65;2.00;;;-5.20;99.90;;;;;;6188140;23;20087;-76
2024/01/09 06:56:17;;;;;;;1.40;1.05;;;-5.30;99.90;;;;;;6215064;23;20390;-76
2024/01/09 06:58:45;;;;;;;5.38;1.55;;;-5.30;99.90;;;;;;6188700;23;20095;-76
2024/01/09 07:01:11;;;;;;;4.00;1.63;;;-5.20;99.90;;;;;;6188240;23;20024;-76
2024/01/09 07:03:36;;;;;;;1.58;0.88;;;-5.20;99.90;;;;;;6188282;23;20013;-76
2024/01/09 07:06:02;;;;;;;2.05;1.30;;;-5.30;99.90;;;;;;6214198;23;20016;-76
2024/01/09 07:08:28;;;;;;;2.08;1.13;;;-5.30;99.90;;;;;;6188288;23;20009;-76
2024/01/09 07:10:54;;;;;;;3.17;1.77;;;-5.30;99.90;;;;;;6214166;23;20009;-76
2024/01/09 07:13:19;;;;;;;5.38;2.10;;;-5.30;99.90;;;;;;6215039;23;20087;-76
2024/01/09 07:15:45;;;;;;;5.75;3.20;;;-5.30;99.90;;;;;;6213689;23;20015;-76
2024/01/09 07:18:11;;;;;;;5.88;2.95;;;-5.30;99.90;;;;;;6188634;23;20503;-76
2024/01/09 07:20:37;;;;;;;3.08;1.85;;;-5.30;99.90;;;;;;6214048;23;20012;-76
2024/01/09 07:23:03;;;;;;;2.88;1.70;;;-5.30;99.90;;;;;;6188194;23;20024;-76
2024/01/09 07:25:28;;;;;;;5.30;2.38;;;-5.30;99.90;;;;;;6188452;23;20349;-76
2024/01/09 07:27:54;;;;;;;2.10;1.60;;;-5.30;99.90;;;;;;6188483;23;20069;-76
2024/01/09 07:30:19;;;;;;;3.50;1.65;;;-5.20;99.90;;;;;;6188050;23;20023;-76
2024/01/09 07:32:45;;;;;;;1.58;1.08;;;-5.20;99.90;;;;;;6188597;23;20012;-75
2024/01/09 07:35:11;;;;;;;2.03;1.40;;;-5.20;99.90;;;;;;6213878;23;20012;-76
2024/01/09 07:37:36;;;;;;;6.22;2.25;;;-5.30;99.90;;;;;;6188480;23;20039;-76
2024/01/09 07:40:04;;;;;;;2.47;1.65;;;-5.30;99.90;;;;;;6187188;23;20013;-76
2024/01/09 07:42:30;;;;;;;3.15;1.65;;;-5.30;99.90;;;;;;6188586;23;20017;-76
2024/01/09 07:44:56;;;;;;;3.72;2.17;;;-5.20;99.90;;;;;;6213333;23;20012;-76
2024/01/09 07:47:21;;;;;;;4.47;1.80;;;-5.20;99.90;;;;;;6188464;23;20009;-76
2024/01/09 07:49:47;;;;;;;3.50;2.47;;;-5.20;99.90;;;;;;6188111;23;20012;-76
2024/01/09 07:52:12;;;;;;;2.72;1.40;;;-5.20;99.90;;;;;;6188585;23;20437;-76
2024/01/09 07:54:40;;;;;;;2.75;1.00;;;-5.20;99.90;;;;;;6214055;23;20008;-76
2024/01/09 07:57:07;;;;;;;3.58;1.88;;;-5.20;99.90;;;;;;6188391;23;20092;-78
2024/01/09 07:59:33;;;;;;;3.13;2.15;;;-5.20;99.90;;;;;;6214063;23;20024;-78
2024/01/09 08:02:00;;;;;;;3.90;2.05;;;-5.10;99.90;;;;;;6188759;23;20008;-77
2024/01/09 08:04:25;;;;;;;2.60;1.63;;;-5.10;99.90;;;;;;6188201;23;20012;-76
2024/01/09 08:06:52;;;;;;;2.78;1.70;;;-5.20;99.90;;;;;;6188335;23;20040;-77
2024/01/09 08:09:18;;;;;;;3.45;2.65;;;-5.20;99.90;;;;;;6188172;23;20091;-77
2024/01/09 08:11:47;;;;;;;3.50;2.13;;;-5.10;99.90;;;;;;6188162;23;20004;-77
2024/01/09 08:14:13;;;;;;;3.67;1.73;;;-5.10;99.90;;;;;;6188318;23;20345;-78
2024/01/09 08:16:42;;;;;;;2.65;1.65;;;-5.20;99.90;;;;;;6188442;23;20012;-77
2024/01/09 08:19:08;;;;;;;1.60;1.35;;;-5.10;99.90;;;;;;6187616;23;20441;-78
2024/01/09 08:21:35;;;;;;;3.40;2.20;;;-5.10;99.90;;;;;;6188420;23;20457;-78
2024/01/09 08:24:02;;;;;;;12.80;2.17;;;-5.10;99.90;;;;;;6187962;23;20009;-78
2024/01/09 08:26:27;;;;;;;1.33;0.95;;;-5.10;99.90;;;;;;6188456;23;20437;-77
2024/01/09 08:28:53;;;;;;;3.60;1.95;;;-5.00;99.90;;;;;;6188049;23;20065;-77
2024/01/09 08:31:19;;;;;;;6.05;3.05;;;-5.10;99.90;;;;;;6187050;23;20467;-77
2024/01/09 08:33:44;;;;;;;4.20;1.95;;;-5.00;99.90;;;;;;6187842;23;20062;-77
2024/01/09 08:36:11;;;;;;;2.38;1.35;;;-5.00;99.90;;;;;;6188490;23;20123;-77
2024/01/09 08:38:37;;;;;;;8.48;1.60;;;-5.00;99.90;;;;;;6187944;23;20444;-77
2024/01/09 08:41:04;;;;;;;5.35;1.73;;;-5.00;99.90;;;;;;6187340;23;20016;-77
2024/01/09 08:43:30;;;;;;;1.50;1.23;;;-4.90;99.90;;;;;;6188037;23;20685;-77
2024/01/09 08:45:55;;;;;;;4.57;1.83;;;-4.90;99.90;;;;;;6213116;23;20055;-77
2024/01/09 08:48:21;;;;;;;2.90;1.42;;;-4.80;99.90;;;;;;6187794;23;20019;-77
2024/01/09 08:50:48;;;;;;;3.58;1.85;;;-4.80;99.90;;;;;;6187405;23;20013;-77
2024/01/09 08:53:14;;;;;;;4.40;1.85;;;-4.80;99.90;;;;;;6187936;23;20464;-78
2024/01/09 08:55:39;;;;;;;3.25;1.73;;;-4.80;99.90;;;;;;6187235;23;20016;-76
2024/01/09 08:58:05;;;;;;;3.78;2.17;;;-4.70;99.90;;;;;;6188284;23;20092;-77
2024/01/09 09:00:31;;;;;;;1.65;1.27;;;-4.70;99.90;;;;;;6188183;23;20013;-77
2024/01/09 09:02:56;;;;;;;2.65;1.63;;;-4.70;99.90;;;;;;6187246;23;20028;-77
2024/01/09 09:05:22;;;;;;;2.90;1.38;;;-4.60;99.90;;;;;;6187734;23;20012;-77
2024/01/09 09:07:48;;;;;;;5.88;1.67;;;-4.60;99.90;;;;;;6187116;23;20018;-77
2024/01/09 09:10:14;;;;;;;2.10;1.67;;;-4.60;99.90;;;;;;6187777;23;20009;-77
2024/01/09 09:12:40;;;;;;;2.72;1.52;;;-4.60;99.90;;;;;;6186943;23;20044;-78
2024/01/09 09:15:06;;;;;;;2.03;1.38;;;-4.50;99.90;;;;;;6187049;23;20013;-77
2024/01/09 09:17:31;;;;;;;2.47;1.92;;;-4.40;99.90;;;;;;6187188;23;20016;-77
2024/01/09 09:19:57;;;;;;;2.00;1.20;;;-4.30;99.90;;;;;;6186278;23;20023;-77
2024/01/09 09:22:25;;;;;;;2.13;1.40;;;-4.30;99.90;;;;;;6187597;23;20515;-78
2024/01/09 09:24:55;;;;;;;3.92;1.95;;;-4.30;99.90;;;;;;6213236;23;20352;-79
2024/01/09 09:27:21;;;;;;;3.92;2.00;;;-4.20;99.90;;;;;;6214180;23;20048;-79
2024/01/09 09:29:47;;;;;;;2.53;1.65;;;-4.20;99.90;;;;;;6213214;23;20019;-78
2024/01/09 09:32:12;;;;;;;1.80;1.58;;;-4.10;99.90;;;;;;6187492;23;20015;-78
2024/01/09 09:34:41;;;;;;;2.47;1.55;;;-4.10;99.90;;;;;;6213287;23;20009;-76
2024/01/09 09:37:07;;;;;;;4.13;1.73;;;-4.00;99.90;;;;;;6188245;23;20020;-74
2024/01/09 09:39:36;;;;;;;5.35;1.67;;;-4.00;99.90;;;;;;6187427;23;20023;-75
2024/01/09 09:42:02;;;;;;;3.35;1.77;;;-3.90;99.90;;;;;;6212974;23;20044;-75
2024/01/09 09:44:27;;;;;;;2.13;1.45;;;-3.80;99.90;;;;;;6211960;23;20082;-77
2024/01/09 09:46:58;;;;;;;1.83;1.25;;;-3.80;99.90;;;;;;6186160;23;20381;-75
2024/01/09 09:49:24;;;;;;;1.75;1.42;;;-3.70;99.90;;;;;;6185878;23;20020;-76
2024/01/09 09:51:54;;;;;;;4.65;1.27;;;-3.60;99.90;;;;;;6211502;23;20012;-76
2024/01/09 09:54:22;;;;;;;2.17;1.98;;;-3.60;99.90;;;;;;6212304;23;20012;-73
2024/01/09 09:56:48;;;;;;;2.45;1.20;;;-3.50;99.90;;;;;;6212310;23;20338;-75
2024/01/09 09:59:15;;;;;;;3.35;1.63;;;-3.40;99.90;;;;;;6212198;23;20020;-76
2024/01/09 10:01:41;;;;;;;4.60;2.38;;;-3.30;99.70;;;;;;6187093;23;20013;-76
2024/01/09 10:04:36;;;;;;;3.50;2.05;;;-3.20;99.90;;;;;;6186123;23;20067;-76
2024/01/09 10:07:06;;;;;;;3.20;1.65;;;-3.20;99.90;;;;;;6186810;23;20009;-76
2024/01/09 10:09:34;;;;;;;3.22;1.45;;;-3.00;98.10;;;;;;6212262;23;20017;-76
2024/01/09 10:12:00;;;;;;;3.00;2.15;;;-2.90;99.20;;;;;;6186999;23;20066;-76
2024/01/09 10:14:27;;;;;;;1.42;1.23;;;-2.80;97.70;;;;;;6212018;23;20008;-76
2024/01/09 10:16:54;;;;;;;4.43;2.22;;;-2.80;97.70;;;;;;6212093;23;20519;-76
2024/01/09 10:19:23;;;;;;;1.33;1.05;;;-2.80;95.40;;;;;;6186642;23;20056;-76
2024/01/09 10:21:50;;;;;;;1.40;0.95;;;-2.70;95.60;;;;;;6186957;23;20009;-76
2024/01/09 10:24:16;;;;;;;1.67;1.17;;;-2.70;95.20;;;;;;6211660;23;20012;-76
2024/01/09 10:26:42;;;;;;;2.53;1.38;;;-2.70;96.30;;;;;;6186738;23;20009;-76
2024/01/09 10:29:09;;;;;;;4.00;1.50;;;-2.70;97.10;;;;;;6210787;23;20009;-76
2024/01/09 10:31:34;;;;;;;3.30;1.70;;;-2.70;98.40;;;;;;6211838;23;20008;-76
2024/01/09 10:34:00;;;;;;;1.73;1.30;;;-2.60;95.60;;;;;;6211275;23;20083;-77
2024/01/09 10:36:27;;;;;;;2.85;1.92;;;-2.60;93.90;;;;;;6187090;23;20009;-76
2024/01/09 10:39:02;;;;;;;4.07;1.58;;;-2.60;93.00;;;;;;6186555;23;20476;-76
2024/01/09 10:41:28;;;;;;;2.05;1.38;;;-2.50;93.90;;;;;;6187045;23;20381;-76
2024/01/09 10:43:54;;;;;;;3.38;1.70;;;-2.50;93.00;;;;;;6185709;23;20012;-76
2024/01/09 10:46:24;;;;;;;2.53;1.58;;;-2.50;92.70;;;;;;6167298;23;20466;-73
2024/01/09 10:48:51;;;;;;;4.85;1.92;;;-2.40;91.80;;;;;;6186955;23;20449;-75
2024/01/09 10:51:18;;;;;;;4.80;1.75;;;-2.40;93.40;;;;;;6187088;23;20016;-74
2024/01/09 10:53:47;;;;;;;4.28;1.98;;;-2.40;93.90;;;;;;6182181;23;20018;-74
2024/01/09 10:56:17;;;;;;;2.67;1.52;;;-2.30;92.30;;;;;;6157440;23;20013;-74
2024/01/09 10:58:48;;;;;;;3.20;1.95;;;-2.30;91.90;;;;;;6127109;23;20045;-75
2024/01/09 11:01:13;;;;;;;3.30;1.83;;;-2.30;91.30;;;;;;6154341;23;20296;-74
2024/01/09 11:03:40;;;;;;;6.07;1.30;;;-2.30;92.30;;;;;;6126774;23;20516;-75
2024/01/09 11:06:07;;;;;;;3.40;1.52;;;-2.20;88.80;;;;;;6127672;23;20044;-75
2024/01/09 11:08:36;;;;;;;2.60;1.20;;;-2.20;90.80;;;;;;6127361;23;20021;-75
2024/01/09 11:11:10;;;;;;;4.68;2.58;;;-2.10;89.10;;;;;;6127662;23;20536;-75
2024/01/09 11:13:39;;;;;;;2.33;1.40;;;-2.10;89.70;;;;;;6126566;23;20033;-75
2024/01/09 11:16:06;;;;;;;2.83;1.80;;;-2.10;85.90;;;;;;6127559;23;20033;-75
2024/01/09 11:18:34;;;;;;;2.83;1.65;;;-2.00;87.50;;;;;;6154090;23;20401;-74
2024/01/09 11:21:04;;;;;;;3.05;1.80;;;-2.00;84.80;;;;;;6127810;23;20366;-75
2024/01/09 11:23:52;;;;;;;3.53;1.90;;;-2.00;84.80;;;;;;6127486;23;20163;-75
2024/01/09 11:26:22;;;;;;;3.17;1.05;;;-1.90;83.60;;;;;;6126934;23;20014;-75
2024/01/09 11:28:48;;;;;;;3.22;1.38;;;-1.80;85.80;;;;;;6153429;23;20010;-75
2024/01/09 11:31:20;;;;;;;1.30;1.05;;;-1.80;84.90;;;;;;6128974;23;20009;-75
2024/01/09 11:33:47;;;;;;;2.88;1.67;;;-1.70;87.90;;;;;;6128473;23;20021;-76
2024/01/09 11:36:23;;;;;;;1.05;1.00;;;-1.60;82.80;;;;;;6155781;23;20016;-75
2024/01/09 11:38:52;;;;;;;2.72;1.08;;;-1.40;81.50;;;;;;6129375;23;20020;-75
2024/01/09 11:41:18;;;;;;;2.65;1.75;;;-1.10;80.50;;;;;;6105418;23;20064;-75
2024/01/09 11:44:03;;;;;;;3.15;1.75;;;-0.90;78.30;;;;;;6128767;23;20390;-75
2024/01/09 11:46:34;;;;;;;3.28;2.05;;;-0.80;79.80;;;;;;6124974;23;20013;-75
2024/01/09 11:49:00;;;;;;;2.63;1.75;;;-0.60;79.10;;;;;;6153389;23;20057;-75
2024/01/09 11:51:26;;;;;;;3.50;2.05;;;-0.50;79.20;;;;;;6154134;23;20012;-75
2024/01/09 11:53:52;;;;;;;1.90;1.30;;;-0.30;77.30;;;;;;6153481;23;20389;-75
2024/01/09 11:56:22;;;;;;;5.93;4.40;;;-0.20;76.60;;;;;;6153505;23;20017;-75
2024/01/09 11:58:50;;;;;;;3.92;3.30;;;0.00;77.90;;;;;;6153717;23;20017;-75
2024/01/09 12:01:15;;;;;;;4.30;3.88;;;0.20;76.70;;;;;;6129239;23;20017;-75
2024/01/09 12:03:41;;;;;;;6.60;4.05;;;0.40;76.70;;;;;;6153453;23;20016;-75
2024/01/09 12:06:06;;;;;;;4.32;1.92;;;0.60;76.00;;;;;;6155020;23;20350;-75
2024/01/09 12:08:33;;;;;;;4.90;3.75;;;0.60;75.50;;;;;;6153278;23;20064;-75
2024/01/09 12:10:59;;;;;;;4.18;1.67;;;0.60;74.30;;;;;;6155389;23;20032;-75
2024/01/09 12:13:26;;;;;;;4.28;3.55;;;0.70;73.90;;;;;;6153557;23;20021;-77
2024/01/09 12:15:51;;;;;;;5.18;4.18;;;0.70;72.30;;;;;;6155721;23;20033;-74
2024/01/09 12:18:17;;;;;;;6.03;4.20;;;0.80;76.80;;;;;;6153763;23;20017;-76
2024/01/09 12:20:42;;;;;;;4.47;3.80;;;0.90;72.80;;;;;;6152479;23;20345;-75
2024/01/09 12:23:08;;;;;;;4.03;3.40;;;0.90;73.80;;;;;;6153195;23;20018;-75
2024/01/09 12:25:35;;;;;;;5.38;3.95;;;1.10;73.90;;;;;;6153340;23;20019;-75
2024/01/09 12:28:01;;;;;;;3.47;2.40;;;1.30;73.50;;;;;;6153233;23;20045;-75
2024/01/09 12:30:28;;;;;;;4.65;3.67;;;1.60;69.80;;;;;;6153270;23;20005;-76
2024/01/09 12:32:54;;;;;;;5.45;3.80;;;1.50;68.50;;;;;;6152934;23;20020;-75
2024/01/09 12:35:20;;;;;;;5.35;3.90;;;1.70;71.50;;;;;;6152991;23;20080;-75
2024/01/09 12:37:46;;;;;;;4.45;3.45;;;1.90;70.50;;;;;;6152490;23;20024;-76
2024/01/09 12:40:16;;;;;;;2.08;1.30;;;1.90;67.30;;;;;;6152951;23;20013;-76
2024/01/09 12:42:42;;;;;;;6.47;3.78;;;1.80;68.20;;;;;;6153140;23;20013;-76